Flight Track Log - Related Links

Times and Time Zones

All times are in EDT time to prevent confusion due to time zone crossing. See the N993LC flight status page for this flight to view local times or setup timezone preferences in your user account.

Time Position Orientation Groundspeed Altitude Reporting Facility
EDT Latitude Longitude Course Direction KTS MPH feet Rate Location/Type
Thu 05:57:58 PM 37.7167 -122.2167 107° East 49 56 1,400  Level Northern Cal TRACON
Thu 05:59:57 PM 37.7000 -122.2167 180° South 17 20 1,500 33 Climbing Northern Cal TRACON
Thu 06:00:58 PM 37.7000 -122.2167 180° South 11 13 1,500 -207 Level Northern Cal TRACON
Thu 06:02:22 PM 37.7211 -122.2475 311° West 188 216 1,000 1,151 Descending Oakland Center
Thu 06:03:00 PM 37.2505 -122.2843 122° Southeast  Level FlightAware Approximate
Thu 06:03:24 PM 37.7542 -122.3347 296° West 232 267 4,300  Level Oakland Center
Thu 06:03:58 PM 37.7667 -122.3833 288° West 252 290 6,200 2,707 Climbing Northern Cal TRACON
Thu 06:04:00 PM 37.2205 -122.1654 107° East  Level FlightAware Approximate
Thu 06:05:00 PM 37.1947 -122.0455 107° East  Level FlightAware Approximate
Thu 06:06:28 PM 37.6078 -122.4894 208° Southwest 297 342 12,600  Level Oakland Center
Thu 06:07:29 PM 37.5200 -122.4983 185° South 312 359 15,200 2,000 Climbing Oakland Center
Thu 06:08:31 PM 37.4406 -122.4344 147° Southeast 343 395 16,700 1,415 Climbing Oakland Center
Thu 06:09:32 PM 37.3686 -122.3494 137° Southeast 355 409 18,100 1,328 Climbing Oakland Center
Thu 06:10:33 PM 37.2889 -122.2608 139° Southeast 383 441 19,400 1,220 Climbing Oakland Center
Thu 06:11:35 PM 37.2092 -122.1683 137° Southeast 391 450 20,600 1,122 Climbing Oakland Center
Thu 06:12:36 PM 37.1256 -122.0728 138° Southeast 405 466 21,700 1,366 Climbing Oakland Center
Thu 06:13:38 PM 37.0233 -121.9589 138° Southeast 410 472 23,400 1,366 Climbing Oakland Center
Thu 06:14:39 PM 36.9392 -121.8622 137° Southeast 412 474 24,500 1,131 Climbing Oakland Center
Thu 06:15:40 PM 36.8481 -121.7700 141° Southeast 423 487 25,700 1,122 Climbing Oakland Center
Thu 06:16:42 PM 36.7617 -121.6786 140° Southeast 426 490 26,800 1,024 Climbing Oakland Center
Thu 06:17:43 PM 36.6719 -121.5789 138° Southeast 431 496 27,800 976 Climbing Oakland Center
Thu 06:18:45 PM 36.5819 -121.4781 138° Southeast 435 501 28,800 585 Climbing Oakland Center
Thu 06:19:46 PM 36.4711 -121.3539 138° Southeast 450 518 29,000 98 Climbing Oakland Center
Thu 06:20:47 PM 36.3758 -121.2492 138° Southeast 458 527 29,000  Level Oakland Center
Thu 06:21:49 PM 36.2806 -121.1433 138° Southeast 460 529 29,000  Level Oakland Center
Thu 06:22:50 PM 36.1850 -121.0372 138° Southeast 461 531 29,000  Level Oakland Center
Thu 06:23:52 PM 36.0883 -120.9322 139° Southeast 462 532 29,000  Level Oakland Center
Thu 06:24:53 PM 35.9914 -120.8281 139° Southeast 463 533 29,000  Level Oakland Center
Thu 06:25:54 PM 35.8961 -120.7206 138° Southeast 463 533 29,000 49 Level Oakland Center
Thu 06:26:56 PM 35.7983 -120.6164 139° Southeast 463 533 29,100 -49 Climbing Oakland Center
Thu 06:27:57 PM 35.7028 -120.5131 139° Southeast 459 528 28,900 -98 Descending Oakland Center
Thu 06:28:59 PM 35.5864 -120.3886 139° Southeast 459 528 28,900  Level Oakland Center
Thu 06:30:00 PM 35.4897 -120.2853 139° Southeast 453 521 28,900 49 Level Oakland Center
Thu 06:31:02 PM 35.3989 -120.1881 139° Southeast 456 525 29,000  Climbing Oakland Center
Thu 06:32:03 PM 35.2958 -120.0778 139° Southeast 454 522 28,900 -77 Descending Oakland Center
Thu 06:32:20 PM 35.2775 -120.0567 137° Southeast 455 524 28,900  Level Los Angeles Center
Thu 06:33:22 PM 35.1803 -119.9567 140° Southeast 455 524 28,900 -435 Level Los Angeles Center
Thu 06:34:24 PM 35.0869 -119.8564 139° Southeast 449 517 28,000 -1,355 Descending Los Angeles Center
Thu 06:35:26 PM 35.0053 -119.7425 131° Southeast 448 516 26,100 -1,984 Descending Los Angeles Center
Thu 06:36:28 PM 34.9081 -119.6111 132° Southeast 436 502 23,900 -2,032 Descending Los Angeles Center
Thu 06:37:30 PM 34.8283 -119.5061 133° Southeast 426 490 21,900 -2,129 Descending Los Angeles Center
Thu 06:38:32 PM 34.7528 -119.4011 131° Southeast 415 478 19,500 -2,274 Descending Los Angeles Center
Thu 06:39:34 PM 34.6769 -119.3025 133° Southeast 401 461 17,200 -2,177 Descending Los Angeles Center
Thu 06:40:36 PM 34.6100 -119.1886 126° Southeast 380 437 15,000 -1,839 Descending Los Angeles Center
Thu 06:41:38 PM 34.5464 -119.0906 128° Southeast 373 429 13,400 -1,584 Descending Los Angeles Center
Thu 06:42:41 PM 34.4875 -118.9978 128° Southeast 341 392 11,700 -1,584 Descending Los Angeles Center
Thu 06:43:43 PM 34.4328 -118.9108 127° Southeast 322 371 10,100 -1,544 Descending Los Angeles Center
Thu 06:44:57 PM 34.3728 -118.8206 129° Southeast 291 335 8,200 -1,588 Descending Los Angeles Center
Thu 06:45:59 PM 34.3181 -118.7300 126° Southeast 277 319 6,500 -1,452 Descending Los Angeles Center
Thu 06:47:01 PM 34.2719 -118.6528 126° Southeast 272 313 5,200 -1,392 Descending Los Angeles Center
Thu 06:48:04 PM 34.2294 -118.5961 132° Southeast 259 298 3,600 -1,056 Descending Los Angeles Center
Thu 06:49:06 PM 34.1758 -118.5672 156° South 227 261 3,000 -581 Descending Los Angeles Center
Thu 06:50:08 PM 34.1478 -118.5322 134° Southeast 184 212 2,400 -581 Descending Los Angeles Center
Thu 06:51:10 PM 34.1586 -118.4883 73° East 166 191 1,800 -532 Descending Los Angeles Center
Thu 06:52:12 PM 34.1969 -118.4917 356° North 150 173 1,300 -484 Descending Los Angeles Center
Thu 06:54:00 PM 34.2000 -118.4833 North  Level FlightAware Approximate

Login

Don't have an account? Register now (free) for customized features, flight alerts, and more!